createdAt,value
2022-09-24T00:00:08.789Z,962.01
2022-09-24T00:01:10.759Z,962.00
2022-09-24T00:02:08.811Z,961.95
2022-09-24T00:03:08.722Z,961.95
2022-09-24T00:04:08.722Z,961.98
2022-09-24T00:05:08.581Z,961.95
2022-09-24T00:06:08.543Z,961.92
2022-09-24T00:07:08.502Z,961.94
2022-09-24T00:08:08.457Z,961.90
2022-09-24T00:09:08.415Z,961.91
2022-09-24T00:10:08.390Z,961.91
2022-09-24T00:11:08.328Z,961.96
2022-09-24T00:12:08.285Z,961.94
2022-09-24T00:13:08.241Z,961.97
2022-09-24T00:14:08.307Z,962.02
2022-09-24T00:15:08.168Z,961.99
2022-09-24T00:16:08.204Z,962.01
2022-09-24T00:17:08.077Z,962.00
2022-09-24T00:18:08.034Z,962.02
2022-09-24T00:19:07.997Z,962.05
2022-09-24T00:20:07.946Z,962.04
2022-09-24T00:21:07.909Z,962.06
2022-09-24T00:22:07.872Z,962.05
2022-09-24T00:23:07.819Z,962.08
2022-09-24T00:24:07.770Z,962.05
2022-09-24T00:25:07.738Z,962.04
2022-09-24T00:26:07.698Z,962.01
2022-09-24T00:27:07.826Z,961.99
2022-09-24T00:28:07.609Z,961.94
2022-09-24T00:29:07.565Z,961.93
2022-09-24T00:30:07.519Z,961.88
2022-09-24T00:31:07.594Z,961.88
2022-09-24T00:32:07.436Z,961.83
2022-09-24T00:33:07.405Z,961.85
2022-09-24T00:34:07.473Z,961.87
2022-09-24T00:35:07.307Z,961.86
2022-09-24T00:36:07.265Z,961.88
2022-09-24T00:37:07.401Z,961.87
2022-09-24T00:38:07.182Z,961.83
2022-09-24T00:39:07.139Z,961.81
2022-09-24T00:40:07.129Z,961.76
2022-09-24T00:41:07.055Z,961.74
2022-09-24T00:42:07.012Z,961.69
2022-09-24T00:43:06.981Z,961.69
2022-09-24T00:44:06.942Z,961.66
2022-09-24T00:45:06.926Z,961.66
2022-09-24T00:46:06.842Z,961.63
2022-09-24T00:47:06.856Z,961.60
2022-09-24T00:48:06.755Z,961.58
2022-09-24T00:49:06.713Z,961.58
2022-09-24T00:50:06.686Z,961.59
2022-09-24T00:51:06.643Z,961.54
2022-09-24T00:52:06.586Z,961.54
2022-09-24T00:53:06.545Z,961.51
2022-09-24T00:54:06.539Z,961.51
2022-09-24T00:55:06.456Z,961.50
2022-09-24T00:56:06.417Z,961.48
2022-09-24T00:57:06.394Z,961.50
2022-09-24T00:58:06.324Z,961.53
2022-09-24T00:59:06.285Z,961.48
2022-09-24T01:00:06.260Z,961.47
2022-09-24T01:01:06.251Z,961.49
2022-09-24T01:02:06.184Z,961.49
2022-09-24T01:03:06.129Z,961.53
2022-09-24T01:04:06.077Z,961.51
2022-09-24T01:05:06.036Z,961.49
2022-09-24T01:06:06.018Z,961.50
2022-09-24T01:07:05.952Z,961.49
2022-09-24T01:08:05.903Z,961.44
2022-09-24T01:09:05.861Z,961.46
2022-09-24T01:10:05.816Z,961.47
2022-09-24T01:11:05.782Z,961.44
2022-09-24T01:12:05.747Z,961.45
2022-09-24T01:13:05.690Z,961.48
2022-09-24T01:14:05.652Z,961.52
2022-09-24T01:15:05.610Z,961.57
2022-09-24T01:16:05.625Z,961.64
2022-09-24T01:17:05.521Z,961.66
2022-09-24T01:18:05.500Z,961.70
2022-09-24T01:19:05.435Z,961.78
2022-09-24T01:20:05.395Z,961.78
2022-09-24T01:21:05.367Z,961.82
2022-09-24T01:22:05.309Z,961.81
2022-09-24T01:23:05.271Z,961.76
2022-09-24T01:24:05.262Z,961.77
2022-09-24T01:25:05.183Z,961.77
2022-09-24T01:26:05.143Z,961.79
2022-09-24T01:27:05.099Z,961.81
2022-09-24T01:28:05.054Z,961.77
2022-09-24T01:29:05.016Z,961.70
2022-09-24T01:30:04.988Z,961.71
2022-09-24T01:31:04.977Z,961.70
2022-09-24T01:32:04.881Z,961.63
2022-09-24T01:33:04.840Z,961.63
2022-09-24T01:34:04.846Z,961.66
2022-09-24T01:35:04.756Z,961.63
2022-09-24T01:36:04.724Z,961.64
2022-09-24T01:37:04.673Z,961.62
2022-09-24T01:38:04.631Z,961.57
2022-09-24T01:39:04.591Z,961.59
2022-09-24T01:40:04.540Z,961.60
2022-09-24T01:41:04.519Z,961.60
2022-09-24T01:42:04.461Z,961.53
2022-09-24T01:43:04.419Z,961.51
2022-09-24T01:44:04.417Z,961.47
2022-09-24T01:45:04.335Z,961.42
2022-09-24T01:46:04.309Z,961.39
2022-09-24T01:47:04.287Z,961.38
2022-09-24T01:48:04.204Z,961.42
2022-09-24T01:49:04.162Z,961.44
2022-09-24T01:50:04.122Z,961.41
2022-09-24T01:51:04.093Z,961.42
2022-09-24T01:52:04.032Z,961.42
2022-09-24T01:53:03.990Z,961.38
2022-09-24T01:54:04.029Z,961.36
2022-09-24T01:55:03.906Z,961.34
2022-09-24T01:56:03.883Z,961.27
2022-09-24T01:57:03.820Z,961.26
2022-09-24T01:58:03.782Z,961.23
2022-09-24T01:59:03.740Z,961.21
2022-09-24T02:00:03.697Z,961.15
2022-09-24T02:01:03.721Z,961.10
2022-09-24T02:02:03.683Z,961.11
2022-09-24T02:03:03.569Z,961.11
2022-09-24T02:04:03.527Z,961.09
2022-09-24T02:05:03.484Z,961.05
2022-09-24T02:06:03.442Z,961.02
2022-09-24T02:07:03.428Z,961.03
2022-09-24T02:08:03.355Z,960.96
2022-09-24T02:09:03.312Z,960.93
2022-09-24T02:10:03.275Z,960.86
2022-09-24T02:11:03.231Z,960.93
2022-09-24T02:12:03.185Z,960.88
2022-09-24T02:13:03.178Z,960.91
2022-09-24T02:14:03.100Z,960.87
2022-09-24T02:15:03.062Z,960.85
2022-09-24T02:16:03.083Z,960.87
2022-09-24T02:17:02.984Z,960.88
2022-09-24T02:18:02.932Z,960.85
2022-09-24T02:19:02.917Z,960.85
2022-09-24T02:20:02.847Z,960.81
2022-09-24T02:21:02.810Z,960.84
2022-09-24T02:22:02.765Z,960.86
2022-09-24T02:23:02.722Z,960.91
2022-09-24T02:24:02.679Z,960.90
2022-09-24T02:25:02.653Z,960.91
2022-09-24T02:26:02.603Z,960.90
2022-09-24T02:27:02.570Z,960.95
2022-09-24T02:28:02.509Z,960.97
2022-09-24T02:29:02.478Z,960.99
2022-09-24T02:30:02.423Z,960.93
2022-09-24T02:31:02.446Z,960.89
2022-09-24T02:32:02.345Z,960.92
2022-09-24T02:33:02.309Z,960.93
2022-09-24T02:34:02.257Z,960.92
2022-09-24T02:35:02.215Z,960.90
2022-09-24T02:36:02.171Z,960.89
2022-09-24T02:37:02.148Z,960.87
2022-09-24T02:38:06.146Z,960.82
2022-09-24T02:39:02.043Z,960.83
2022-09-24T02:40:01.999Z,960.84
2022-09-24T02:41:01.957Z,960.81
2022-09-24T02:42:01.938Z,960.77
2022-09-24T02:43:01.877Z,960.80
2022-09-24T02:44:01.960Z,960.78
2022-09-24T02:45:01.789Z,960.79
2022-09-24T02:46:01.838Z,960.75
2022-09-24T02:47:01.705Z,960.77
2022-09-24T02:48:01.842Z,960.82
2022-09-24T02:49:01.622Z,960.84
2022-09-24T02:50:01.579Z,960.87
2022-09-24T02:51:01.537Z,960.90
2022-09-24T02:52:01.494Z,960.87
2022-09-24T02:53:01.453Z,960.93
2022-09-24T02:54:01.481Z,960.92
2022-09-24T02:55:01.374Z,960.96
2022-09-24T02:56:01.327Z,960.97
2022-09-24T02:57:01.286Z,960.98
2022-09-24T02:58:01.238Z,960.96
2022-09-24T02:59:01.196Z,960.98
2022-09-24T03:00:01.198Z,960.97
2022-09-24T03:01:01.113Z,961.03
2022-09-24T03:02:01.194Z,960.96
2022-09-24T03:03:01.100Z,961.00
2022-09-24T03:04:01.053Z,961.01
2022-09-24T03:05:00.950Z,960.99
2022-09-24T03:06:00.910Z,961.01
2022-09-24T03:07:00.856Z,960.98
2022-09-24T03:08:00.810Z,960.97
2022-09-24T03:09:00.772Z,960.96
2022-09-24T03:10:00.730Z,960.96
2022-09-24T03:11:00.686Z,960.93
2022-09-24T03:12:00.699Z,960.96
2022-09-24T03:13:00.598Z,960.93
2022-09-24T03:14:00.556Z,960.94
2022-09-24T03:15:00.515Z,960.94
2022-09-24T03:16:00.522Z,960.95
2022-09-24T03:17:00.428Z,960.98
2022-09-24T03:18:00.406Z,961.00
2022-09-24T03:19:00.348Z,960.98
2022-09-24T03:20:00.329Z,960.96
2022-09-24T03:21:00.262Z,960.98
2022-09-24T03:22:00.222Z,961.00
2022-09-24T03:23:00.177Z,960.99
2022-09-24T03:24:00.134Z,961.03
2022-09-24T03:25:00.111Z,961.01
2022-09-24T03:26:00.062Z,960.97
2022-09-24T03:27:00.008Z,960.95
2022-09-24T03:27:59.960Z,960.97
2022-09-24T03:28:59.919Z,960.94
2022-09-24T03:29:59.880Z,960.93
2022-09-24T03:30:59.875Z,960.92
2022-09-24T03:31:59.821Z,960.94
2022-09-24T03:32:59.752Z,960.94
2022-09-24T03:33:59.707Z,960.95
2022-09-24T03:34:59.664Z,960.95
2022-09-24T03:35:59.620Z,960.95
2022-09-24T03:36:59.573Z,960.98
2022-09-24T03:37:59.556Z,960.97
2022-09-24T03:38:59.492Z,960.99
2022-09-24T03:39:59.446Z,961.00
2022-09-24T03:40:59.456Z,960.99
2022-09-24T03:41:59.366Z,960.95
2022-09-24T03:42:59.321Z,960.98
2022-09-24T03:43:59.460Z,960.95
2022-09-24T03:44:59.239Z,960.98
2022-09-24T03:45:59.195Z,961.00
2022-09-24T03:46:59.157Z,961.00
2022-09-24T03:47:59.107Z,961.01
2022-09-24T03:48:59.069Z,961.00
2022-09-24T03:49:59.043Z,960.97
2022-09-24T03:50:58.985Z,960.95
2022-09-24T03:51:58.937Z,960.92
2022-09-24T03:52:58.898Z,960.94
2022-09-24T03:53:58.852Z,960.90
2022-09-24T03:54:58.815Z,960.88
2022-09-24T03:55:58.790Z,960.86
2022-09-24T03:56:58.731Z,960.87
2022-09-24T03:57:58.691Z,960.86
2022-09-24T03:58:58.637Z,960.85
2022-09-24T03:59:58.600Z,960.86
2022-09-24T04:00:58.558Z,960.86
2022-09-24T04:01:58.576Z,960.88
2022-09-24T04:02:58.525Z,960.86
2022-09-24T04:03:58.427Z,960.88
2022-09-24T04:04:58.384Z,960.85
2022-09-24T04:05:58.344Z,960.86
2022-09-24T04:06:58.329Z,960.87
2022-09-24T04:07:58.258Z,960.86
2022-09-24T04:08:58.216Z,960.91
2022-09-24T04:09:58.175Z,960.90
2022-09-24T04:10:58.132Z,960.90
2022-09-24T04:11:58.092Z,960.92
2022-09-24T04:12:58.231Z,960.90
2022-09-24T04:13:58.003Z,960.92
2022-09-24T04:14:57.965Z,960.91
2022-09-24T04:15:57.979Z,960.91
2022-09-24T04:16:57.874Z,960.86
2022-09-24T04:17:57.833Z,960.92
2022-09-24T04:18:57.968Z,960.91
2022-09-24T04:19:57.750Z,960.92
2022-09-24T04:20:57.706Z,960.88
2022-09-24T04:21:57.666Z,960.91
2022-09-24T04:22:57.627Z,960.89
2022-09-24T04:23:57.579Z,960.87
2022-09-24T04:24:57.566Z,960.87
2022-09-24T04:25:57.491Z,960.79
2022-09-24T04:26:57.455Z,960.82
2022-09-24T04:27:57.411Z,960.79
2022-09-24T04:28:57.361Z,960.78
2022-09-24T04:29:58.275Z,960.77
2022-09-24T04:30:57.376Z,960.75
2022-09-24T04:31:57.236Z,960.73
2022-09-24T04:32:57.194Z,960.71
2022-09-24T04:33:57.153Z,960.73
2022-09-24T04:34:57.111Z,960.76
2022-09-24T04:35:57.077Z,960.79
2022-09-24T04:36:57.034Z,960.80
2022-09-24T04:37:56.982Z,960.81
2022-09-24T04:38:56.941Z,960.82
2022-09-24T04:39:56.896Z,960.88
2022-09-24T04:40:56.875Z,960.93
2022-09-24T04:41:56.921Z,960.94
2022-09-24T04:42:56.771Z,960.96
2022-09-24T04:43:56.723Z,960.94
2022-09-24T04:44:56.679Z,960.94
2022-09-24T04:45:56.640Z,960.91
2022-09-24T04:46:56.633Z,960.92
2022-09-24T04:47:56.571Z,960.89
2022-09-24T04:48:56.510Z,960.93
2022-09-24T04:49:56.471Z,960.93
2022-09-24T04:50:56.424Z,960.93
2022-09-24T04:51:56.382Z,960.94
2022-09-24T04:52:56.343Z,960.92
2022-09-24T04:53:56.306Z,960.97
2022-09-24T04:54:56.253Z,961.00
2022-09-24T04:55:56.214Z,960.99
2022-09-24T04:56:56.168Z,960.99
2022-09-24T04:57:56.126Z,961.04
2022-09-24T04:58:56.101Z,961.05
2022-09-24T04:59:56.039Z,961.04
2022-09-24T05:00:55.996Z,961.04
2022-09-24T05:01:56.046Z,960.99
2022-09-24T05:02:56.149Z,961.03
2022-09-24T05:03:55.867Z,960.98
2022-09-24T05:04:55.835Z,960.99
2022-09-24T05:05:55.782Z,960.96
2022-09-24T05:06:55.762Z,960.96
2022-09-24T05:07:55.699Z,960.97
2022-09-24T05:08:55.656Z,960.99
2022-09-24T05:09:55.616Z,961.00
2022-09-24T05:10:55.567Z,961.04
2022-09-24T05:11:55.526Z,961.05
2022-09-24T05:12:55.503Z,961.07
2022-09-24T05:13:55.447Z,961.08
2022-09-24T05:14:55.401Z,961.09
2022-09-24T05:15:55.407Z,961.12
2022-09-24T05:16:55.310Z,961.15
2022-09-24T05:17:55.270Z,961.14
2022-09-24T05:18:55.255Z,961.10
2022-09-24T05:19:55.185Z,961.05
2022-09-24T05:20:55.143Z,961.05
2022-09-24T05:21:55.100Z,961.02
2022-09-24T05:22:55.058Z,961.02
2022-09-24T05:23:55.021Z,961.05
2022-09-24T05:24:54.996Z,961.08
2022-09-24T05:25:54.930Z,961.15
2022-09-24T05:26:54.899Z,961.13
2022-09-24T05:27:54.888Z,961.10
2022-09-24T05:28:54.800Z,961.07
2022-09-24T05:29:54.756Z,961.04
2022-09-24T05:30:54.763Z,961.06
2022-09-24T05:31:54.693Z,961.05
2022-09-24T05:32:54.633Z,961.05
2022-09-24T05:33:54.587Z,961.04
2022-09-24T05:34:54.547Z,961.08
2022-09-24T05:35:54.501Z,961.10
2022-09-24T05:36:54.459Z,961.15
2022-09-24T05:37:54.466Z,961.18
2022-09-24T05:38:54.375Z,961.17
2022-09-24T05:39:54.331Z,961.18
2022-09-24T05:40:54.350Z,961.16
2022-09-24T05:41:54.251Z,961.16
2022-09-24T05:42:54.204Z,961.14
2022-09-24T05:43:54.174Z,961.17
2022-09-24T05:44:54.117Z,961.12
2022-09-24T05:45:54.074Z,961.12
2022-09-24T05:46:54.073Z,961.14
2022-09-24T05:47:53.988Z,961.12
2022-09-24T05:48:53.996Z,961.17
2022-09-24T05:49:53.903Z,961.11
2022-09-24T05:50:53.860Z,961.04
2022-09-24T05:51:53.820Z,961.08
2022-09-24T05:52:53.773Z,961.09
2022-09-24T05:53:53.735Z,961.13
2022-09-24T05:54:53.717Z,961.14
2022-09-24T05:55:53.649Z,961.13
2022-09-24T05:56:53.609Z,961.14
2022-09-24T05:57:53.562Z,961.17
2022-09-24T05:58:53.521Z,961.14
2022-09-24T05:59:53.478Z,961.16
2022-09-24T06:03:46.386Z,961.15
2022-09-24T06:04:46.312Z,961.13
2022-09-24T06:05:46.271Z,961.18
2022-09-24T06:06:46.223Z,961.19
2022-09-24T06:07:46.186Z,961.22
2022-09-24T06:08:46.141Z,961.23
2022-09-24T06:09:46.118Z,961.23
2022-09-24T06:10:46.053Z,961.19
2022-09-24T06:11:46.004Z,961.19
2022-09-24T06:12:45.971Z,961.21
2022-09-24T06:13:45.924Z,961.18
2022-09-24T06:14:45.884Z,961.19
2022-09-24T06:15:45.960Z,961.19
2022-09-24T06:16:45.796Z,961.20
2022-09-24T06:17:45.755Z,961.20
2022-09-24T06:18:45.709Z,961.18
2022-09-24T06:19:45.674Z,961.19
2022-09-24T06:20:45.622Z,961.19
2022-09-24T06:21:45.600Z,961.18
2022-09-24T06:22:45.539Z,961.20
2022-09-24T06:23:45.493Z,961.21
2022-09-24T06:24:45.455Z,961.21
2022-09-24T06:25:45.412Z,961.20
2022-09-24T06:26:45.365Z,961.24
2022-09-24T06:27:45.363Z,961.23
2022-09-24T06:28:45.280Z,961.25
2022-09-24T06:29:45.243Z,961.25
2022-09-24T06:30:45.199Z,961.26
2022-09-24T06:31:45.243Z,961.31
2022-09-24T06:32:45.116Z,961.32
2022-09-24T06:33:45.085Z,961.35
2022-09-24T06:34:45.027Z,961.31
2022-09-24T06:35:44.982Z,961.30
2022-09-24T06:36:44.945Z,961.32
2022-09-24T06:37:44.900Z,961.36
2022-09-24T06:38:44.869Z,961.30
2022-09-24T06:39:44.814Z,961.35
2022-09-24T06:40:44.784Z,961.33
2022-09-24T06:41:44.731Z,961.34
2022-09-24T06:42:44.684Z,961.35
2022-09-24T06:43:44.648Z,961.33
2022-09-24T06:44:44.618Z,961.32
2022-09-24T06:45:44.561Z,961.34
2022-09-24T06:46:44.565Z,961.34
2022-09-24T06:47:44.474Z,961.30
2022-09-24T06:48:44.583Z,961.31
2022-09-24T06:49:44.393Z,961.37
2022-09-24T06:50:44.354Z,961.38
2022-09-24T06:51:44.306Z,961.33
2022-09-24T06:52:44.293Z,961.39
2022-09-24T06:53:44.227Z,961.36
2022-09-24T06:54:44.211Z,961.41
2022-09-24T06:55:44.138Z,961.39
2022-09-24T06:56:44.115Z,961.36
2022-09-24T06:57:44.055Z,961.39
2022-09-24T06:58:44.024Z,961.41
2022-09-24T06:59:43.969Z,961.37
2022-09-24T07:00:43.972Z,961.40
2022-09-24T07:01:44.014Z,961.39
2022-09-24T07:04:15.848Z,961.39
2022-09-24T07:05:15.806Z,961.40
2022-09-24T07:06:15.778Z,961.38
2022-09-24T07:07:15.700Z,961.38
2022-09-24T07:08:15.658Z,961.42
2022-09-24T07:10:47.694Z,961.39
2022-09-24T07:11:47.297Z,961.42
2022-09-24T07:12:47.779Z,961.42
2022-09-24T07:13:47.220Z,961.42
2022-09-24T07:14:47.394Z,961.43
2022-09-24T07:15:47.226Z,961.44
2022-09-24T07:16:47.585Z,961.43
2022-09-24T07:17:47.053Z,961.44
2022-09-24T07:18:47.015Z,961.47
2022-09-24T07:19:46.985Z,961.45
2022-09-24T07:20:47.148Z,961.48
2022-09-24T07:21:46.966Z,961.47
2022-09-24T07:22:47.071Z,961.48
2022-09-24T07:23:46.808Z,961.49
2022-09-24T07:24:46.780Z,961.51
2022-09-24T07:25:46.742Z,961.53
2022-09-24T07:26:46.789Z,961.56
2022-09-24T07:27:46.996Z,961.51
2022-09-24T07:28:46.957Z,961.54
2022-09-24T07:29:46.603Z,961.51
2022-09-24T07:30:46.512Z,961.53
2022-09-24T07:31:46.696Z,961.53
2022-09-24T07:32:46.440Z,961.50
2022-09-24T07:33:46.421Z,961.48
2022-09-24T07:34:46.639Z,961.44
2022-09-24T07:35:46.307Z,961.43
2022-09-24T07:36:46.448Z,961.43
2022-09-24T07:37:46.244Z,961.46
2022-09-24T07:38:47.279Z,961.49
2022-09-24T07:39:46.153Z,961.51
2022-09-24T07:40:46.591Z,961.53
2022-09-24T07:41:46.278Z,961.51
2022-09-24T07:42:46.022Z,961.52
2022-09-24T07:43:46.097Z,961.50
2022-09-24T07:44:45.946Z,961.49
2022-09-24T07:45:46.102Z,961.52
2022-09-24T07:46:45.929Z,961.50
2022-09-24T07:47:45.819Z,961.56
2022-09-24T07:48:45.977Z,961.55
2022-09-24T07:49:45.930Z,961.61
2022-09-24T07:50:45.702Z,961.60
2022-09-24T07:51:45.750Z,961.60
2022-09-24T07:52:45.624Z,961.59
2022-09-24T07:53:45.576Z,961.61
2022-09-24T07:54:45.971Z,961.61
2022-09-24T07:55:45.497Z,961.60
2022-09-24T07:56:45.566Z,961.63
2022-09-24T07:57:45.406Z,961.63
2022-09-24T07:58:45.374Z,961.63
2022-09-24T07:59:45.324Z,961.60
2022-09-24T08:00:46.619Z,961.60
2022-09-24T08:01:45.256Z,961.58
2022-09-24T08:02:45.414Z,961.57
2022-09-24T08:03:45.208Z,961.57
2022-09-24T08:04:45.119Z,961.61
2022-09-24T08:05:45.343Z,961.58
2022-09-24T08:06:47.513Z,961.64
2022-09-24T08:07:44.998Z,961.64
2022-09-24T08:08:45.041Z,961.62
2022-09-24T08:09:44.916Z,961.64
2022-09-24T08:10:44.877Z,961.63
2022-09-24T08:11:45.027Z,961.64
2022-09-24T08:14:16.762Z,961.67
2022-09-24T08:15:17.745Z,961.68
2022-09-24T08:16:16.774Z,961.71
2022-09-24T08:17:16.488Z,961.73
2022-09-24T08:18:17.817Z,961.73
2022-09-24T08:19:16.387Z,961.74
2022-09-24T08:20:17.698Z,961.73
2022-09-24T08:21:16.290Z,961.74
2022-09-24T08:22:16.256Z,961.77
2022-09-24T08:23:16.235Z,961.75
2022-09-24T08:24:16.391Z,961.74
2022-09-24T08:25:16.269Z,961.74
2022-09-24T08:26:16.208Z,961.77
2022-09-24T08:27:17.508Z,961.77
2022-09-24T08:28:16.223Z,961.76
2022-09-24T08:29:16.283Z,961.76
2022-09-24T08:30:16.028Z,961.74
2022-09-24T08:31:16.060Z,961.76
2022-09-24T08:32:25.004Z,961.75
2022-09-24T08:33:25.076Z,961.75
2022-09-24T08:34:25.094Z,961.74
2022-09-24T08:36:19.137Z,961.76
2022-09-24T08:36:19.956Z,961.76
2022-09-24T08:37:27.661Z,961.77
2022-09-24T08:38:19.872Z,961.74
2022-09-24T08:39:19.829Z,961.73
2022-09-24T08:40:19.861Z,961.74
2022-09-24T08:41:19.770Z,961.75
2022-09-24T08:42:19.708Z,961.69
2022-09-24T08:43:19.667Z,961.75
2022-09-24T08:44:19.629Z,961.76
2022-09-24T08:45:19.589Z,961.79
2022-09-24T08:46:19.563Z,961.78
2022-09-24T08:47:19.581Z,961.76
2022-09-24T08:48:19.463Z,961.78
2022-09-24T08:49:19.422Z,961.77
2022-09-24T08:50:19.393Z,961.79
2022-09-24T08:51:19.336Z,961.74
2022-09-24T08:52:19.294Z,961.75
2022-09-24T08:53:19.270Z,961.75
2022-09-24T08:54:19.217Z,961.71
2022-09-24T08:55:19.174Z,961.68
2022-09-24T08:56:19.133Z,961.77
2022-09-24T08:57:19.093Z,961.74
2022-09-24T08:58:19.051Z,961.78
2022-09-24T08:59:19.028Z,961.79
2022-09-24T09:00:19.005Z,961.75
2022-09-24T09:01:18.978Z,961.75
2022-09-24T09:02:19.009Z,961.75
2022-09-24T09:03:18.856Z,961.71
2022-09-24T09:04:18.807Z,961.69
2022-09-24T09:05:18.784Z,961.77
2022-09-24T09:06:18.727Z,961.73
2022-09-24T09:07:18.682Z,961.73
2022-09-24T09:08:45.107Z,961.74
2022-09-24T09:09:18.747Z,961.71
2022-09-24T09:10:18.636Z,961.73
2022-09-24T09:11:18.530Z,961.74
2022-09-24T09:12:18.477Z,961.75
2022-09-24T09:13:19.169Z,961.76
2022-09-24T09:14:18.395Z,961.73
2022-09-24T09:15:18.356Z,961.72
2022-09-24T09:16:18.408Z,961.75
2022-09-24T09:17:18.288Z,961.76
2022-09-24T09:18:18.400Z,961.72
2022-09-24T09:19:18.195Z,961.71
2022-09-24T09:20:18.176Z,961.73
2022-09-24T09:21:18.105Z,961.66
2022-09-24T09:22:18.064Z,961.71
2022-09-24T09:23:18.027Z,961.71
2022-09-24T09:24:18.015Z,961.69
2022-09-24T09:25:17.941Z,961.70
2022-09-24T09:26:17.903Z,961.70
2022-09-24T09:27:17.860Z,961.70
2022-09-24T09:28:17.818Z,961.74
2022-09-24T09:29:17.777Z,961.71
2022-09-24T09:30:17.842Z,961.73
2022-09-24T09:31:17.725Z,961.74
2022-09-24T09:32:17.645Z,961.72
2022-09-24T09:33:17.602Z,961.71
2022-09-24T09:34:17.568Z,961.72
2022-09-24T09:35:17.524Z,961.75
2022-09-24T09:36:17.502Z,961.75
2022-09-24T09:37:20.870Z,961.73
2022-09-24T09:38:17.394Z,961.73
2022-09-24T09:39:17.351Z,961.73
2022-09-24T09:40:17.428Z,961.73
2022-09-24T09:41:17.270Z,961.71
2022-09-24T09:42:17.245Z,961.73
2022-09-24T09:43:17.185Z,961.73
2022-09-24T09:44:17.148Z,961.75
2022-09-24T09:45:17.103Z,961.73
2022-09-24T09:46:17.128Z,961.73
2022-09-24T09:47:17.026Z,961.75
2022-09-24T09:48:16.970Z,961.74
2022-09-24T09:49:16.928Z,961.77
2022-09-24T09:50:16.891Z,961.78
2022-09-24T09:51:19.995Z,961.80
2022-09-24T09:52:16.890Z,961.76
2022-09-24T09:53:16.763Z,961.78
2022-09-24T09:54:16.720Z,961.75
2022-09-24T09:55:16.672Z,961.76
2022-09-24T09:56:16.634Z,961.78
2022-09-24T09:57:16.591Z,961.77
2022-09-24T09:58:16.582Z,961.73
2022-09-24T09:59:16.507Z,961.73
2022-09-24T10:00:16.466Z,961.74
2022-09-24T10:01:16.455Z,961.76
2022-09-24T10:02:16.457Z,961.73
2022-09-24T10:03:16.387Z,961.70
2022-09-24T10:04:16.702Z,961.75
2022-09-24T10:05:19.344Z,961.77
2022-09-24T10:06:16.208Z,961.78
2022-09-24T10:07:16.164Z,961.78
2022-09-24T10:08:16.124Z,961.80
2022-09-24T10:09:16.086Z,961.80
2022-09-24T10:10:16.216Z,961.80
2022-09-24T10:11:15.993Z,961.77
2022-09-24T10:12:15.954Z,961.73
2022-09-24T10:13:15.915Z,961.72
2022-09-24T10:14:15.874Z,961.73
2022-09-24T10:15:15.828Z,961.75
2022-09-24T10:16:15.893Z,961.68
2022-09-24T10:17:15.747Z,961.71
2022-09-24T10:18:15.706Z,961.70
2022-09-24T10:19:15.662Z,961.74
2022-09-24T10:20:15.689Z,961.76
2022-09-24T10:21:15.582Z,961.72
2022-09-24T10:22:15.660Z,961.73
2022-09-24T10:23:15.497Z,961.74
2022-09-24T10:24:15.516Z,961.78
2022-09-24T10:25:15.423Z,961.77
2022-09-24T10:26:15.378Z,961.73
2022-09-24T10:27:15.338Z,961.71
2022-09-24T10:28:15.310Z,961.75
2022-09-24T10:29:15.251Z,961.73
2022-09-24T10:30:15.212Z,961.75
2022-09-24T10:31:15.221Z,961.70
2022-09-24T10:32:15.130Z,961.74
2022-09-24T10:33:15.088Z,961.72
2022-09-24T10:34:15.060Z,961.72
2022-09-24T10:35:15.007Z,961.69
2022-09-24T10:36:14.968Z,961.68
2022-09-24T10:37:14.924Z,961.66
2022-09-24T10:38:14.887Z,961.64
2022-09-24T10:39:14.859Z,961.61
2022-09-24T10:40:14.906Z,961.60
2022-09-24T10:41:14.764Z,961.59
2022-09-24T10:42:14.721Z,961.60
2022-09-24T10:43:14.682Z,961.62
2022-09-24T10:44:14.670Z,961.67
2022-09-24T10:45:14.595Z,961.62
2022-09-24T10:46:14.585Z,961.64
2022-09-24T10:47:14.515Z,961.62
2022-09-24T10:48:14.474Z,961.63
2022-09-24T10:49:14.433Z,961.58
2022-09-24T10:50:14.409Z,961.56
2022-09-24T10:51:14.351Z,961.53
2022-09-24T10:52:14.316Z,961.50
2022-09-24T10:53:14.283Z,961.50
2022-09-24T10:54:14.235Z,961.47
2022-09-24T10:55:14.224Z,961.47
2022-09-24T10:56:14.148Z,961.49
2022-09-24T10:57:14.132Z,961.52
2022-09-24T10:58:14.085Z,961.45
2022-09-24T10:59:14.029Z,961.47
2022-09-24T11:00:14.043Z,961.49
2022-09-24T11:01:13.948Z,961.48
2022-09-24T11:02:14.008Z,961.48
2022-09-24T11:03:13.903Z,961.49
2022-09-24T11:04:13.822Z,961.50
2022-09-24T11:05:13.785Z,961.50
2022-09-24T11:06:13.801Z,961.51
2022-09-24T11:07:13.702Z,961.50
2022-09-24T11:08:13.666Z,961.51
2022-09-24T11:09:13.619Z,961.51
2022-09-24T11:10:13.612Z,961.52
2022-09-24T11:11:13.548Z,961.58
2022-09-24T11:12:13.620Z,961.54
2022-09-24T11:13:13.475Z,961.58
2022-09-24T11:14:13.424Z,961.56
2022-09-24T11:15:13.381Z,961.56
2022-09-24T11:16:13.369Z,961.57
2022-09-24T11:17:13.296Z,961.52
2022-09-24T11:18:13.294Z,961.51
2022-09-24T11:19:13.215Z,961.51
2022-09-24T11:20:13.203Z,961.51
2022-09-24T11:21:13.140Z,961.49
2022-09-24T11:22:13.113Z,961.53
2022-09-24T11:23:13.053Z,961.50
2022-09-24T11:24:13.055Z,961.47
2022-09-24T11:25:12.976Z,961.45
2022-09-24T11:26:12.943Z,961.45
2022-09-24T11:27:12.892Z,961.44
2022-09-24T11:28:12.853Z,961.45
2022-09-24T11:29:12.817Z,961.41
2022-09-24T11:30:12.797Z,961.37
2022-09-24T11:31:12.807Z,961.39
2022-09-24T11:32:12.704Z,961.39
2022-09-24T11:33:12.652Z,961.37
2022-09-24T11:34:12.614Z,961.40
2022-09-24T11:35:12.571Z,961.43
2022-09-24T11:36:12.567Z,961.41
2022-09-24T11:37:12.493Z,961.38
2022-09-24T11:38:12.455Z,961.35
2022-09-24T11:39:12.417Z,961.35
2022-09-24T11:40:12.453Z,961.32
2022-09-24T11:41:12.330Z,961.37
2022-09-24T11:42:12.322Z,961.36
2022-09-24T11:43:12.256Z,961.36
2022-09-24T11:44:12.275Z,961.35
2022-09-24T11:45:12.178Z,961.31
2022-09-24T11:46:12.212Z,961.29
2022-09-24T11:47:12.088Z,961.29
2022-09-24T11:48:12.085Z,961.28
2022-09-24T11:49:12.014Z,961.25
2022-09-24T11:50:12.142Z,961.27
2022-09-24T11:51:11.927Z,961.23
2022-09-24T11:52:11.893Z,961.25
2022-09-24T11:53:11.862Z,961.24
2022-09-24T11:54:11.910Z,961.28
2022-09-24T11:55:11.766Z,961.25
2022-09-24T11:56:13.451Z,961.25
2022-09-24T11:57:11.684Z,961.20
2022-09-24T11:58:11.656Z,961.24
2022-09-24T11:59:11.605Z,961.21
2022-09-24T12:00:11.654Z,961.21
2022-09-24T12:01:11.521Z,961.18
2022-09-24T12:02:11.517Z,961.18
2022-09-24T12:03:11.512Z,961.18
2022-09-24T12:04:11.434Z,961.20
2022-09-24T12:05:11.357Z,961.16
2022-09-24T12:06:11.356Z,961.15
2022-09-24T12:07:11.278Z,961.16
2022-09-24T12:08:11.237Z,961.17
2022-09-24T12:09:11.189Z,961.16
2022-09-24T12:10:11.193Z,961.18
2022-09-24T12:11:11.106Z,961.12
2022-09-24T12:12:11.100Z,961.12
2022-09-24T12:13:11.062Z,961.13
2022-09-24T12:14:11.047Z,961.12
2022-09-24T12:15:10.938Z,961.12
2022-09-24T12:16:10.974Z,961.11
2022-09-24T12:17:10.863Z,961.12
2022-09-24T12:18:18.869Z,961.08
2022-09-24T12:19:11.199Z,961.11
2022-09-24T12:20:10.898Z,961.02
2022-09-24T12:21:12.451Z,961.04
2022-09-24T12:22:11.225Z,961.01
2022-09-24T12:23:10.749Z,961.00
2022-09-24T12:24:10.810Z,960.94
2022-09-24T12:25:10.759Z,960.98
2022-09-24T12:26:10.548Z,961.00
2022-09-24T12:27:10.450Z,961.01
2022-09-24T12:28:10.585Z,960.99
2022-09-24T12:29:10.356Z,960.98
2022-09-24T12:30:11.615Z,961.00
2022-09-24T12:31:12.518Z,960.99
2022-09-24T12:32:10.411Z,960.97
2022-09-24T12:33:10.189Z,960.96
2022-09-24T12:34:10.545Z,960.97
2022-09-24T12:35:10.163Z,960.93